createdAt,value
2017-08-20T00:00:45.755Z,70.7
2017-08-20T00:01:44.702Z,70.9
2017-08-20T00:02:44.384Z,70.9
2017-08-20T00:03:43.453Z,71
2017-08-20T00:04:42.891Z,71.3
2017-08-20T00:05:41.827Z,71.2
2017-08-20T00:06:41.283Z,71.2
2017-08-20T00:07:40.729Z,71.4
2017-08-20T00:08:39.792Z,71.4
2017-08-20T00:09:39.237Z,71.6
2017-08-20T00:10:38.178Z,71.6
2017-08-20T00:11:37.858Z,71.5
2017-08-20T00:12:37.033Z,71.4
2017-08-20T00:13:36.108Z,71.7
2017-08-20T00:14:35.662Z,71.3
2017-08-20T00:15:35.115Z,71.6
2017-08-20T00:16:34.296Z,71.6
2017-08-20T00:17:33.114Z,71.6
2017-08-20T00:18:32.563Z,71.9
2017-08-20T00:19:32.136Z,71.6
2017-08-20T00:20:30.954Z,72
2017-08-20T00:21:30.281Z,72.1
2017-08-20T00:22:29.725Z,72.1
2017-08-20T00:23:29.288Z,72.2
2017-08-20T00:24:28.357Z,72.3
2017-08-20T00:25:27.538Z,72.3
2017-08-20T00:26:26.985Z,72.3
2017-08-20T00:27:26.163Z,72.1
2017-08-20T00:28:25.719Z,72.1
2017-08-20T00:28:56.089Z,72.1
2017-08-20T00:29:26.571Z,72.1
2017-08-20T00:30:24.127Z,72.3
2017-08-20T00:32:22.698Z,72.4
2017-08-20T00:33:21.645Z,72.2
2017-08-20T00:34:21.208Z,72.5
2017-08-20T00:35:20.262Z,72.3
2017-08-20T00:36:19.939Z,72.2
2017-08-20T00:37:18.888Z,72.4
2017-08-20T00:38:18.071Z,72.5
2017-08-20T00:38:48.561Z,72.5
2017-08-20T00:39:19.048Z,72.3
2017-08-20T00:39:49.540Z,72.3
2017-08-20T00:40:19.916Z,72.4
2017-08-20T00:40:50.400Z,72.4
2017-08-20T00:42:15.248Z,72.6
2017-08-20T00:43:14.431Z,72.7
2017-08-20T00:44:14.115Z,73
2017-08-20T00:45:13.181Z,73.2
2017-08-20T00:46:12.366Z,73.2
2017-08-20T00:47:11.544Z,73.2
2017-08-20T00:48:11.110Z,73.7
2017-08-20T00:49:10.283Z,73.5
2017-08-20T00:50:09.470Z,73.5
2017-08-20T00:52:08.054Z,73.8
2017-08-20T00:53:06.997Z,73.9
2017-08-20T00:54:06.438Z,74
2017-08-20T00:55:05.616Z,73.8
2017-08-20T00:56:05.184Z,74.1
2017-08-20T00:57:04.285Z,74.3
2017-08-20T00:58:03.462Z,74.3
2017-08-20T00:59:03.139Z,74.3
2017-08-20T01:00:02.203Z,74.4
2017-08-20T01:01:01.265Z,74.6
2017-08-20T01:02:59.842Z,74.6
2017-08-20T01:03:59.291Z,74.6
2017-08-20T01:04:58.352Z,74.6
2017-08-20T01:05:58.036Z,75.1
2017-08-20T01:06:57.212Z,75.1
2017-08-20T01:07:56.391Z,74.9
2017-08-20T01:08:55.327Z,74.9
2017-08-20T01:10:54.280Z,74.9
2017-08-20T01:11:53.345Z,74.5
2017-08-20T01:12:52.674Z,74.6
2017-08-20T01:13:51.728Z,74.8
2017-08-20T01:14:51.749Z,74.8
2017-08-20T01:15:50.428Z,74.7
2017-08-20T01:16:49.492Z,74.4
2017-08-20T01:17:49.166Z,74.5
2017-08-20T01:18:48.349Z,74.5
2017-08-20T01:19:47.418Z,74.3
2017-08-20T01:20:17.901Z,74.3
2017-08-20T01:20:48.153Z,74.6
2017-08-20T01:21:18.907Z,74.6
2017-08-20T01:22:45.145Z,74.3
2017-08-20T01:23:44.327Z,74.3
2017-08-20T01:24:44.011Z,74.3
2017-08-20T01:25:43.191Z,74.3
2017-08-20T01:26:42.252Z,74
2017-08-20T01:27:41.422Z,74.3
2017-08-20T01:28:40.862Z,74.3
2017-08-20T01:29:39.922Z,74.3
2017-08-20T01:31:38.868Z,74.5
2017-08-20T01:32:37.933Z,74.5
2017-08-20T01:33:36.993Z,74.6
2017-08-20T01:36:34.826Z,75.2
2017-08-20T01:37:34.010Z,75.3
2017-08-20T01:38:33.699Z,75.5
2017-08-20T01:40:31.763Z,75.6
2017-08-20T01:41:31.207Z,75.6
2017-08-20T01:42:30.768Z,75.9
2017-08-20T01:43:29.943Z,76
2017-08-20T01:44:29.004Z,76
2017-08-20T01:45:28.064Z,76
2017-08-20T01:46:27.745Z,75.9
2017-08-20T01:47:26.693Z,76
2017-08-20T01:48:25.884Z,75.8
2017-08-20T01:49:25.442Z,75.8
2017-08-20T01:50:24.500Z,75.7
2017-08-20T01:51:23.943Z,75.6
2017-08-20T01:52:23.122Z,75.8
2017-08-20T01:53:22.181Z,76
2017-08-20T01:54:21.857Z,76
2017-08-20T01:55:21.039Z,76.1
2017-08-20T01:56:20.217Z,76.2
2017-08-20T01:57:19.395Z,76.2
2017-08-20T01:58:18.569Z,76.2
2017-08-20T02:00:17.138Z,76.3
2017-08-20T02:01:16.323Z,76.4
2017-08-20T02:02:15.496Z,76.6
2017-08-20T02:03:15.169Z,76.6
2017-08-20T02:04:14.228Z,76.8
2017-08-20T02:05:13.404Z,76.7
2017-08-20T02:06:12.460Z,76.7
2017-08-20T02:06:42.830Z,76.7
2017-08-20T02:07:13.311Z,76.7
2017-08-20T02:08:11.138Z,76.7
2017-08-20T02:09:10.080Z,76.6
2017-08-20T02:10:09.771Z,76.7
2017-08-20T02:11:08.956Z,76.9
2017-08-20T02:12:08.025Z,76.9
2017-08-20T02:13:07.708Z,77.1
2017-08-20T02:14:06.649Z,77.2
2017-08-20T02:15:05.851Z,77.2
2017-08-20T02:16:05.543Z,77.2
2017-08-20T02:17:04.608Z,77.2
2017-08-20T02:18:03.779Z,77
2017-08-20T02:19:02.958Z,77
2017-08-20T02:20:02.014Z,77.1
2017-08-20T02:21:01.580Z,77.1
2017-08-20T02:22:00.760Z,77.1
2017-08-20T02:23:00.893Z,77
2017-08-20T02:23:59.092Z,77.2
2017-08-20T02:25:57.671Z,77.4
2017-08-20T02:26:57.355Z,77.5
2017-08-20T02:27:56.413Z,77.5
2017-08-20T02:28:55.586Z,77.5
2017-08-20T02:29:54.761Z,77.5
2017-08-20T02:30:53.939Z,77.7
2017-08-20T02:31:53.622Z,77.7
2017-08-20T02:32:52.562Z,77.7
2017-08-20T02:33:51.741Z,77.7
2017-08-20T02:34:51.420Z,77.7
2017-08-20T02:36:49.477Z,77.6
2017-08-20T02:37:49.152Z,77.5
2017-08-20T02:38:48.337Z,77.5
2017-08-20T02:39:47.976Z,77.5
2017-08-20T02:41:45.918Z,77.7
2017-08-20T02:42:44.985Z,77.6
2017-08-20T02:43:44.421Z,77.6
2017-08-20T02:44:43.486Z,77.8
2017-08-20T02:45:43.738Z,77.8
2017-08-20T02:46:42.056Z,77.8
2017-08-20T02:51:38.677Z,78
2017-08-20T02:52:37.851Z,78
2017-08-20T02:53:37.035Z,78.1
2017-08-20T02:54:36.220Z,78.2
2017-08-20T02:55:35.410Z,78.3
2017-08-20T02:57:33.745Z,78.2
2017-08-20T02:58:33.440Z,78.3
2017-08-20T02:59:32.503Z,78.3
2017-08-20T03:00:31.562Z,78.2
2017-08-20T03:01:31.121Z,78.2
2017-08-20T03:03:29.696Z,78.2
2017-08-20T03:04:28.755Z,78.2
2017-08-20T03:05:28.317Z,78.1
2017-08-20T03:06:27.374Z,78.1
2017-08-20T03:07:26.428Z,78.1
2017-08-20T03:08:25.988Z,78.1
2017-08-20T03:08:56.362Z,78.1
2017-08-20T03:09:26.752Z,78.1
2017-08-20T03:09:57.139Z,78.1
2017-08-20T03:12:22.771Z,77.8
2017-08-20T03:13:22.335Z,77.9
2017-08-20T03:15:20.900Z,77.8
2017-08-20T03:16:20.074Z,77.8
2017-08-20T03:17:19.251Z,77.8
2017-08-20T03:18:18.461Z,77.8
2017-08-20T03:19:17.781Z,77.8
2017-08-20T03:21:16.112Z,77.7
2017-08-20T03:22:15.676Z,77.7
2017-08-20T03:24:14.244Z,77.9
2017-08-20T03:25:13.421Z,77.9
2017-08-20T03:26:12.602Z,77.7
2017-08-20T03:27:11.659Z,77.7
2017-08-20T03:28:11.345Z,77.7
2017-08-20T03:30:09.419Z,77.6
2017-08-20T03:31:08.994Z,77.5
2017-08-20T03:32:07.942Z,77.7
2017-08-20T03:33:07.388Z,77.9
2017-08-20T03:36:05.352Z,78.3
2017-08-20T03:37:04.178Z,78.4
2017-08-20T03:38:03.866Z,78.7
2017-08-20T03:38:34.374Z,78.7
2017-08-20T03:39:04.864Z,78.7
2017-08-20T03:39:35.351Z,78.7
2017-08-20T03:41:01.478Z,79.1
2017-08-20T03:42:00.656Z,79.1
2017-08-20T03:42:59.608Z,79.4
2017-08-20T03:43:59.163Z,79.4
2017-08-20T03:45:57.608Z,79.4
2017-08-20T03:46:56.791Z,79.5
2017-08-20T03:47:56.351Z,79.5
2017-08-20T03:48:55.531Z,79.5
2017-08-20T03:49:54.703Z,79.5
2017-08-20T03:50:53.758Z,79.6
2017-08-20T03:51:53.315Z,79.5
2017-08-20T03:52:52.255Z,79.8
2017-08-20T03:53:51.949Z,79.7
2017-08-20T03:54:51.704Z,79.9
2017-08-20T03:55:50.384Z,80
2017-08-20T03:56:49.447Z,80.2
2017-08-20T03:57:49.011Z,80.3
2017-08-20T03:59:47.070Z,80.3
2017-08-20T04:00:46.752Z,80.4
2017-08-20T04:01:45.935Z,80.4
2017-08-20T04:02:45.117Z,80.4
2017-08-20T04:03:44.053Z,80.4
2017-08-20T04:06:42.012Z,80.3
2017-08-20T04:07:41.071Z,80.2
2017-08-20T04:08:40.641Z,80.3
2017-08-20T04:09:39.698Z,80.3
2017-08-20T04:10:38.756Z,80.2
2017-08-20T04:11:38.311Z,80.2
2017-08-20T04:12:37.372Z,80.3
2017-08-20T04:13:36.541Z,80.2
2017-08-20T04:14:36.116Z,80.2
2017-08-20T04:16:34.562Z,80.2
2017-08-20T04:17:34.014Z,80.3
2017-08-20T04:18:32.954Z,80.4
2017-08-20T04:19:32.006Z,80.3
2017-08-20T04:20:31.455Z,80.3
2017-08-20T04:21:30.777Z,80.3
2017-08-20T04:22:29.718Z,80.3
2017-08-20T04:23:29.166Z,80.2
2017-08-20T04:24:28.353Z,80.2
2017-08-20T04:26:26.994Z,80.3
2017-08-20T04:27:26.170Z,80.2
2017-08-20T04:32:22.398Z,80.3
2017-08-20T04:33:21.451Z,80.3
2017-08-20T04:34:20.814Z,80.4
2017-08-20T04:35:20.490Z,80.5
2017-08-20T04:36:19.662Z,80.5
2017-08-20T04:37:18.836Z,80.5
2017-08-20T04:38:17.895Z,80.5
2017-08-20T04:39:17.076Z,80.5
2017-08-20T04:40:16.133Z,80.5
2017-08-20T04:41:15.816Z,80.5
2017-08-20T04:42:14.992Z,80.6
2017-08-20T04:43:14.171Z,80.5
2017-08-20T04:45:12.736Z,80.5
2017-08-20T04:46:11.791Z,80.6
2017-08-20T04:47:10.972Z,80.5
2017-08-20T04:48:10.411Z,80.6
2017-08-20T04:49:09.473Z,80.6
2017-08-20T04:51:08.049Z,80.5
2017-08-20T04:53:06.618Z,80.2
2017-08-20T04:54:05.679Z,80.1
2017-08-20T04:55:05.238Z,80
2017-08-20T04:56:04.298Z,80
2017-08-20T04:57:03.360Z,80
2017-08-20T04:59:02.066Z,79.8
2017-08-20T05:00:01.634Z,79.6
2017-08-20T05:01:00.693Z,79.3
2017-08-20T05:01:59.870Z,78.9
2017-08-20T05:02:58.932Z,78.4
2017-08-20T05:03:58.614Z,77.9
2017-08-20T05:04:57.682Z,78
2017-08-20T05:05:56.873Z,78.1
2017-08-20T05:06:56.063Z,78.3
2017-08-20T05:07:55.007Z,78.1
2017-08-20T05:09:54.073Z,77.6
2017-08-20T05:10:53.249Z,77.6
2017-08-20T05:12:51.823Z,77.5
2017-08-20T05:13:50.888Z,77.5
2017-08-20T05:14:49.946Z,77.5
2017-08-20T05:15:49.122Z,76.5
2017-08-20T05:16:48.685Z,76.3
2017-08-20T05:18:47.251Z,76.5
2017-08-20T05:20:45.331Z,75.9
2017-08-20T05:22:43.658Z,75.9
2017-08-20T05:23:43.217Z,75.7
2017-08-20T05:24:42.172Z,75.5
2017-08-20T05:25:41.619Z,75.3
2017-08-20T05:26:40.942Z,74.9
2017-08-20T05:27:40.017Z,75.1
2017-08-20T05:28:39.697Z,74.3
2017-08-20T05:29:38.519Z,74.3
2017-08-20T05:31:36.849Z,72.6
2017-08-20T05:32:36.416Z,72.6
2017-08-20T05:33:35.472Z,72.1
2017-08-20T05:34:35.162Z,71.4
2017-08-20T05:35:34.336Z,71.1
2017-08-20T05:36:33.506Z,71.2
2017-08-20T05:37:32.835Z,71.4
2017-08-20T05:38:31.779Z,69.8
2017-08-20T05:39:31.336Z,69.5
2017-08-20T05:40:30.670Z,69.6
2017-08-20T05:41:29.840Z,69.1
2017-08-20T05:42:28.914Z,69.1
2017-08-20T05:43:28.085Z,68.4
2017-08-20T05:44:27.274Z,68.3
2017-08-20T05:45:26.451Z,68.3
2017-08-20T05:46:26.127Z,68.4
2017-08-20T05:47:25.190Z,66.9
2017-08-20T05:48:24.368Z,67.5
2017-08-20T05:49:23.554Z,67.5
2017-08-20T05:50:22.726Z,66.7
2017-08-20T05:51:22.288Z,66.6
2017-08-20T05:52:21.228Z,66.5
2017-08-20T05:53:20.417Z,65.9
2017-08-20T05:54:20.100Z,65.9
2017-08-20T05:55:19.283Z,65.9
2017-08-20T05:56:18.220Z,65.2
2017-08-20T05:57:17.281Z,65.3
2017-08-20T05:58:16.847Z,65.5
2017-08-20T05:59:15.904Z,65.5
2017-08-20T06:00:15.588Z,64.7
2017-08-20T06:01:14.643Z,64.7
2017-08-20T06:02:13.708Z,64.8
2017-08-20T06:03:12.881Z,64.7
2017-08-20T06:04:12.443Z,63.9
2017-08-20T06:05:11.509Z,64
2017-08-20T06:06:10.691Z,64
2017-08-20T06:07:09.870Z,64
2017-08-20T06:08:09.441Z,63.9
2017-08-20T06:09:08.498Z,63.4
2017-08-20T06:10:07.947Z,63.7
2017-08-20T06:11:07.005Z,63.6
2017-08-20T06:12:06.073Z,62.2
2017-08-20T06:13:05.634Z,62
2017-08-20T06:14:04.700Z,61.1
2017-08-20T06:15:03.881Z,61.2
2017-08-20T06:16:03.566Z,61.9
2017-08-20T06:17:03.235Z,60.5
2017-08-20T06:18:01.812Z,61
2017-08-20T06:19:00.992Z,61.4
2017-08-20T06:20:00.056Z,60.3
2017-08-20T06:20:59.748Z,60.5
2017-08-20T06:21:58.806Z,60.8
2017-08-20T06:22:57.873Z,59.9
2017-08-20T06:23:57.552Z,59.9
2017-08-20T06:24:56.780Z,59.9
2017-08-20T06:25:55.834Z,60.8
2017-08-20T06:26:55.014Z,60.5
2017-08-20T06:27:54.192Z,60
2017-08-20T06:28:53.895Z,60
2017-08-20T06:29:52.954Z,59.1
2017-08-20T06:30:52.132Z,59.4
2017-08-20T06:31:51.205Z,59.4
2017-08-20T06:32:50.654Z,59.5
2017-08-20T06:33:49.835Z,59
2017-08-20T06:34:49.018Z,58.5
2017-08-20T06:35:48.201Z,57.6
2017-08-20T06:37:46.773Z,57.3
2017-08-20T06:38:45.954Z,58.1
2017-08-20T06:40:44.916Z,58.1
2017-08-20T06:41:43.626Z,58.1
2017-08-20T06:42:43.078Z,57.7
2017-08-20T06:43:42.285Z,57.1
2017-08-20T06:44:41.494Z,57.6
2017-08-20T06:47:39.222Z,56
2017-08-20T06:48:38.781Z,56.2
2017-08-20T06:49:37.839Z,55.5
2017-08-20T06:50:37.403Z,55.3
2017-08-20T06:51:36.457Z,55.4
2017-08-20T06:52:35.520Z,55.5
2017-08-20T06:53:35.108Z,55.6
2017-08-20T06:54:34.286Z,55.6
2017-08-20T06:55:33.477Z,55.6
2017-08-20T06:56:32.426Z,55
2017-08-20T06:57:32.255Z,56.2
2017-08-20T06:58:31.318Z,56.2
2017-08-20T06:59:30.754Z,56.2
2017-08-20T07:00:29.944Z,55.8
2017-08-20T07:01:29.122Z,55.8
2017-08-20T07:02:28.292Z,55
2017-08-20T07:03:27.476Z,54.4
2017-08-20T07:04:27.160Z,53.8
2017-08-20T07:06:25.621Z,55.1
2017-08-20T07:07:24.689Z,54.5
2017-08-20T07:09:23.140Z,54.6
2017-08-20T07:10:22.711Z,54.9
2017-08-20T07:11:21.885Z,54.8
2017-08-20T07:12:21.066Z,53.2
2017-08-20T07:13:20.255Z,54.7
2017-08-20T07:14:19.439Z,54.1
2017-08-20T07:16:18.003Z,53.1
2017-08-20T07:17:17.184Z,53.9
2017-08-20T07:18:16.637Z,53.9
2017-08-20T07:19:15.841Z,53.3
2017-08-20T07:20:15.020Z,53.3
2017-08-20T07:21:14.705Z,53.8
2017-08-20T07:22:13.882Z,54.3
2017-08-20T07:23:12.958Z,54.3
2017-08-20T07:24:12.024Z,54.8
2017-08-20T07:25:11.585Z,55.5
2017-08-20T07:26:10.756Z,55.8
2017-08-20T07:27:09.816Z,54.9
2017-08-20T07:28:09.493Z,55.9
2017-08-20T07:29:08.454Z,54.9
2017-08-20T07:30:07.902Z,55.1
2017-08-20T07:31:07.379Z,54.7
2017-08-20T07:32:06.438Z,53.6
2017-08-20T07:33:05.650Z,53.6
2017-08-20T07:34:04.713Z,54.4
2017-08-20T07:35:04.275Z,53.3
2017-08-20T07:36:03.456Z,53.3
2017-08-20T07:37:03.136Z,53.6
2017-08-20T07:38:02.193Z,53.8
2017-08-20T07:39:01.381Z,53.1
2017-08-20T07:40:00.557Z,53.1
2017-08-20T07:41:59.129Z,53.3
2017-08-20T07:42:58.813Z,51.2
2017-08-20T07:43:57.877Z,51.3
2017-08-20T07:44:57.060Z,51.6
2017-08-20T07:45:56.513Z,50.2
2017-08-20T07:46:55.693Z,50.1
2017-08-20T07:47:54.869Z,49.3
2017-08-20T07:48:54.500Z,49.9
2017-08-20T07:49:53.671Z,49.9
2017-08-20T07:50:52.849Z,49.9
2017-08-20T07:51:51.916Z,50.8
2017-08-20T07:53:50.379Z,51.2
2017-08-20T07:54:49.937Z,51
2017-08-20T07:55:49.113Z,51.9
2017-08-20T07:56:48.673Z,51.6
2017-08-20T07:57:47.731Z,52.2
2017-08-20T07:58:46.791Z,52.3
2017-08-20T07:59:46.233Z,51.6
2017-08-20T08:00:45.683Z,52.1
2017-08-20T08:01:44.859Z,51.2
2017-08-20T08:02:44.549Z,52
2017-08-20T08:03:43.627Z,49.9
2017-08-20T08:04:42.591Z,49.5
2017-08-20T08:05:42.036Z,49.5
2017-08-20T08:07:40.875Z,49.7
2017-08-20T08:08:39.937Z,51
2017-08-20T08:09:39.504Z,50.7
2017-08-20T08:10:38.561Z,49.1
2017-08-20T08:11:38.024Z,48.4
2017-08-20T08:13:36.588Z,46.1
2017-08-20T08:15:35.045Z,46.3
2017-08-20T08:16:34.605Z,46.2
2017-08-20T08:17:34.057Z,45.7
2017-08-20T08:18:33.115Z,46
2017-08-20T08:20:31.445Z,46.1
2017-08-20T08:21:30.889Z,45.8
2017-08-20T08:22:01.381Z,45.8
2017-08-20T08:22:31.764Z,47
2017-08-20T08:23:02.259Z,47
2017-08-20T08:24:29.119Z,47.3
2017-08-20T08:25:28.302Z,46.5
2017-08-20T08:26:27.364Z,46.2
2017-08-20T08:27:26.928Z,47
2017-08-20T08:28:25.994Z,46.9
2017-08-20T08:29:25.680Z,47.4
2017-08-20T08:30:24.873Z,47.3
2017-08-20T08:31:24.060Z,47.1
2017-08-20T08:32:23.118Z,46.8
2017-08-20T08:34:21.948Z,46.4
2017-08-20T08:35:21.146Z,47
2017-08-20T08:36:20.595Z,47.6
2017-08-20T08:37:19.919Z,47.6
2017-08-20T08:38:19.487Z,48.2
2017-08-20T08:39:18.665Z,47.7
2017-08-20T08:40:17.845Z,47.6
2017-08-20T08:40:48.334Z,47.6
2017-08-20T08:42:16.710Z,47.9
2017-08-20T08:43:15.885Z,47.9
2017-08-20T08:45:14.451Z,46.9
2017-08-20T08:46:13.896Z,47.3
2017-08-20T08:47:13.071Z,47.3
2017-08-20T08:48:12.635Z,47.9
2017-08-20T08:49:11.810Z,48
2017-08-20T08:50:10.985Z,48
2017-08-20T08:51:09.928Z,48.3
2017-08-20T08:52:09.493Z,47.6
2017-08-20T08:53:09.178Z,47.8
2017-08-20T08:54:08.355Z,47.1
2017-08-20T08:55:07.416Z,46.8
2017-08-20T08:56:06.981Z,47.1
2017-08-20T08:57:05.928Z,47.1
2017-08-20T08:58:05.380Z,47.2
2017-08-20T08:59:05.064Z,47.2
2017-08-20T09:00:03.975Z,46.6
2017-08-20T09:01:03.663Z,46.8
2017-08-20T09:02:02.842Z,47
2017-08-20T09:03:02.020Z,45.9
2017-08-20T09:04:01.583Z,45.7
2017-08-20T09:05:00.760Z,44.4
2017-08-20T09:06:00.208Z,44.7
2017-08-20T09:06:59.263Z,44.4
2017-08-20T09:07:58.818Z,44.8
2017-08-20T09:08:57.990Z,44.2
2017-08-20T09:09:57.672Z,44.9
2017-08-20T09:10:56.727Z,44.9
2017-08-20T09:11:55.919Z,44.9
2017-08-20T09:12:55.613Z,44.8
2017-08-20T09:13:54.800Z,43.9
2017-08-20T09:14:53.983Z,43.4
2017-08-20T09:15:53.666Z,43.4
2017-08-20T09:16:52.610Z,43.4
2017-08-20T09:17:52.178Z,43.4
2017-08-20T09:18:51.249Z,44.2
2017-08-20T09:19:50.693Z,45.3
2017-08-20T09:20:49.876Z,43.7
2017-08-20T09:21:49.559Z,45
2017-08-20T09:22:48.507Z,45.1
2017-08-20T09:23:48.188Z,45.4
2017-08-20T09:24:47.127Z,46.1
2017-08-20T09:25:46.689Z,46.5
2017-08-20T09:26:46.132Z,47.1
2017-08-20T09:27:45.310Z,47.8
2017-08-20T09:28:44.873Z,47.1
2017-08-20T09:30:43.323Z,48.5
2017-08-20T09:31:42.763Z,48.7
2017-08-20T09:33:40.988Z,48.7
2017-08-20T09:34:40.315Z,49.5
2017-08-20T09:35:39.882Z,49.5
2017-08-20T09:36:39.333Z,49.4
2017-08-20T09:37:38.778Z,49.2
2017-08-20T09:38:37.839Z,48.9
2017-08-20T09:39:37.527Z,49.3
2017-08-20T09:40:36.701Z,49
2017-08-20T09:41:36.151Z,48.9
2017-08-20T09:42:35.342Z,48.2
2017-08-20T09:43:34.400Z,48.4
2017-08-20T09:44:33.967Z,48.3
2017-08-20T09:45:33.181Z,48.2
2017-08-20T09:46:32.626Z,48.2
2017-08-20T09:47:32.074Z,47.4
2017-08-20T09:48:31.514Z,47.9
2017-08-20T09:49:30.693Z,48.1
2017-08-20T09:50:30.147Z,48.1
2017-08-20T09:51:29.325Z,48.1
2017-08-20T09:52:29.024Z,48.5
2017-08-20T09:53:28.199Z,49.1
2017-08-20T09:54:27.383Z,49.5
2017-08-20T09:55:26.559Z,50.1
2017-08-20T09:56:26.239Z,50.5
2017-08-20T09:57:25.309Z,50.8
2017-08-20T09:58:24.881Z,51.5
2017-08-20T09:59:24.059Z,51.9
2017-08-20T10:00:23.243Z,52
2017-08-20T10:01:22.818Z,52
2017-08-20T10:02:22.261Z,52.2
2017-08-20T10:03:21.441Z,52.8
2017-08-20T10:04:22.107Z,52.4
2017-08-20T10:05:20.068Z,52.5
2017-08-20T10:06:19.254Z,52.6
2017-08-20T10:08:18.320Z,52.5
2017-08-20T10:09:17.283Z,52.4
2017-08-20T10:10:16.841Z,52.3
2017-08-20T10:11:16.019Z,52.4
2017-08-20T10:12:15.708Z,52
2017-08-20T10:13:14.770Z,51.3
2017-08-20T10:14:14.226Z,52.4
2017-08-20T10:15:13.289Z,53.1
2017-08-20T10:16:12.972Z,52.7
2017-08-20T10:17:11.942Z,52.6
2017-08-20T10:18:11.637Z,52.7
2017-08-20T10:20:10.098Z,52.3
2017-08-20T10:21:09.303Z,52.7
2017-08-20T10:22:08.885Z,51.6
2017-08-20T10:23:07.961Z,51.9
2017-08-20T10:24:07.435Z,51.6
2017-08-20T10:25:06.623Z,51.6
2017-08-20T10:26:06.199Z,51.6
2017-08-20T10:27:05.374Z,50.8
2017-08-20T10:28:05.079Z,51
2017-08-20T10:29:04.046Z,52
2017-08-20T10:30:03.623Z,51.4
2017-08-20T10:31:02.827Z,51
2017-08-20T10:32:02.095Z,50.2
2017-08-20T10:33:01.786Z,50.3
2017-08-20T10:34:00.885Z,49.5
2017-08-20T10:35:00.092Z,49.7
2017-08-20T10:35:59.792Z,48.6
2017-08-20T10:36:58.878Z,49.2
2017-08-20T10:37:58.069Z,49
2017-08-20T10:38:57.643Z,48.9
2017-08-20T10:39:56.825Z,48.1
2017-08-20T10:41:55.412Z,47.7
2017-08-20T10:42:54.990Z,47.7
2017-08-20T10:43:54.185Z,47.4
2017-08-20T10:44:53.762Z,49
2017-08-20T10:45:52.961Z,50
2017-08-20T10:46:52.425Z,48.7
2017-08-20T10:48:50.874Z,48.4
2017-08-20T10:49:50.443Z,48.5
2017-08-20T10:50:49.522Z,47.6
2017-08-20T10:51:49.113Z,47.7
2017-08-20T10:52:48.680Z,47.8
2017-08-20T10:53:47.773Z,47.8
2017-08-20T10:54:46.985Z,47.2
2017-08-20T10:55:46.682Z,48.1
2017-08-20T10:56:45.870Z,46.6
2017-08-20T10:57:44.822Z,47.2
2017-08-20T10:59:43.915Z,48.3
2017-08-20T11:00:14.295Z,48.3
2017-08-20T11:01:42.455Z,48.4
2017-08-20T11:02:41.905Z,47.8
2017-08-20T11:03:40.969Z,47.8
2017-08-20T11:04:40.433Z,47.5
2017-08-20T11:05:40.135Z,47.4
2017-08-20T11:06:39.203Z,47.6
2017-08-20T11:07:38.549Z,47.4
2017-08-20T11:09:37.517Z,47.7
2017-08-20T11:10:36.974Z,46.5
2017-08-20T11:11:36.177Z,46.7
2017-08-20T11:12:35.368Z,46.2
2017-08-20T11:13:34.564Z,45.1
2017-08-20T11:14:34.028Z,45
2017-08-20T11:15:33.607Z,44.7
2017-08-20T11:16:32.799Z,44.6
2017-08-20T11:18:31.533Z,44.6
2017-08-20T11:19:30.739Z,43.7
2017-08-20T11:20:30.197Z,43.9
2017-08-20T11:21:29.394Z,43.7
2017-08-20T11:22:28.980Z,43.7
2017-08-20T11:24:27.564Z,44.1
2017-08-20T11:25:27.016Z,43.9
2017-08-20T11:26:26.217Z,43.6
2017-08-20T11:27:25.551Z,44
2017-08-20T11:28:25.123Z,43.8
2017-08-20T11:29:24.323Z,44.3
2017-08-20T11:30:24.022Z,44.5
2017-08-20T11:31:23.101Z,45.1
2017-08-20T11:32:21.940Z,44.8
2017-08-20T11:33:22.013Z,45.6
2017-08-20T11:34:21.081Z,46.1
2017-08-20T11:35:20.660Z,46.1
2017-08-20T11:36:19.728Z,46.1
2017-08-20T11:37:19.310Z,45.5
2017-08-20T11:38:18.879Z,46.3
2017-08-20T11:39:17.947Z,46.1
2017-08-20T11:40:17.425Z,43.3
2017-08-20T11:41:16.499Z,42.5
2017-08-20T11:42:16.088Z,43.8
2017-08-20T11:43:15.284Z,43.1
2017-08-20T11:44:14.880Z,42.1
2017-08-20T11:46:13.353Z,42.7
2017-08-20T11:47:13.077Z,41.6
2017-08-20T11:48:12.279Z,41.3
2017-08-20T11:49:11.468Z,42.2
2017-08-20T11:50:11.055Z,42.9
2017-08-20T11:51:10.243Z,41.8
2017-08-20T11:52:09.827Z,42.9
2017-08-20T11:53:09.030Z,42.9
2017-08-20T11:54:08.774Z,42.9
2017-08-20T11:55:07.975Z,40.7
2017-08-20T11:57:06.554Z,39.9
2017-08-20T11:58:06.251Z,40.4
2017-08-20T11:59:05.319Z,41
2017-08-20T12:00:05.010Z,41
2017-08-20T12:01:03.967Z,42
2017-08-20T12:02:03.662Z,41.8
2017-08-20T12:03:02.862Z,41.6
2017-08-20T12:04:02.439Z,41.6
2017-08-20T12:05:01.524Z,42.2
2017-08-20T12:06:00.999Z,41.7
2017-08-20T12:07:00.689Z,41.6
2017-08-20T12:07:59.795Z,41.3
2017-08-20T12:08:59.368Z,41.6
2017-08-20T12:09:58.564Z,41.9
2017-08-20T12:10:57.629Z,41.9
2017-08-20T12:11:57.094Z,41.8
2017-08-20T12:12:56.675Z,43
2017-08-20T12:13:56.264Z,44.2
2017-08-20T12:14:55.217Z,45.7
2017-08-20T12:15:54.796Z,46.6
2017-08-20T12:16:54.487Z,47.2
2017-08-20T12:17:53.687Z,47.2
2017-08-20T12:18:52.876Z,47.8
2017-08-20T12:19:52.454Z,48
2017-08-20T12:20:51.531Z,46.6
2017-08-20T12:21:51.238Z,47.4
2017-08-20T12:22:50.199Z,48.2
2017-08-20T12:23:49.666Z,47.8
2017-08-20T12:24:49.359Z,48
2017-08-20T12:25:48.430Z,48
2017-08-20T12:26:48.131Z,48.7
2017-08-20T12:27:47.334Z,48.9
2017-08-20T12:28:46.417Z,48.9
2017-08-20T12:29:46.011Z,49.5
2017-08-20T12:30:45.476Z,50
2017-08-20T12:31:44.429Z,49
2017-08-20T12:32:43.761Z,49.1
2017-08-20T12:33:43.217Z,49
2017-08-20T12:34:42.686Z,49.3
2017-08-20T12:35:42.037Z,48.5
2017-08-20T12:36:41.613Z,48.6
2017-08-20T12:37:40.694Z,48.7
2017-08-20T12:38:40.275Z,48.8
2017-08-20T12:39:39.353Z,49.1
2017-08-20T12:40:38.930Z,47.8
2017-08-20T12:41:38.386Z,46.7
2017-08-20T12:42:37.459Z,48.4
2017-08-20T12:43:37.148Z,48
2017-08-20T12:47:34.513Z,49.3
2017-08-20T12:48:33.345Z,48.4
2017-08-20T12:49:32.800Z,47.2
2017-08-20T12:50:32.378Z,48.6
2017-08-20T12:51:31.715Z,47.8
2017-08-20T12:52:31.288Z,47.4
2017-08-20T12:53:30.471Z,47.4
2017-08-20T12:54:29.813Z,47.4
2017-08-20T12:55:28.998Z,47.8
2017-08-20T12:56:28.688Z,47.9
2017-08-20T12:57:27.770Z,48
2017-08-20T12:58:27.467Z,48.3
2017-08-20T12:59:26.433Z,47.7
2017-08-20T13:00:26.021Z,47.5
2017-08-20T13:01:25.592Z,48.1
2017-08-20T13:02:24.547Z,47
2017-08-20T13:03:24.123Z,47.4
2017-08-20T13:04:23.320Z,47.4
2017-08-20T13:05:22.643Z,48.5
2017-08-20T13:06:22.349Z,48
2017-08-20T13:07:21.536Z,47.7
2017-08-20T13:08:20.597Z,47.7
2017-08-20T13:09:20.176Z,48.8
2017-08-20T13:10:19.743Z,48.4
2017-08-20T13:11:18.940Z,48.3
2017-08-20T13:12:18.129Z,48.3
2017-08-20T13:13:17.091Z,48
2017-08-20T13:14:16.687Z,47.3
2017-08-20T13:15:16.251Z,48.2
2017-08-20T13:16:15.435Z,48.9
2017-08-20T13:17:15.124Z,47.4
2017-08-20T13:18:14.323Z,47.6
2017-08-20T13:19:13.515Z,48.1
2017-08-20T13:20:13.208Z,48.2
2017-08-20T13:21:12.282Z,48.6
2017-08-20T13:22:11.469Z,48.6
2017-08-20T13:23:11.050Z,48.8
2017-08-20T13:24:10.394Z,48.7
2017-08-20T13:25:09.615Z,48.9
2017-08-20T13:26:09.294Z,48.7
2017-08-20T13:27:08.370Z,48.5
2017-08-20T13:28:07.953Z,48.3
2017-08-20T13:29:07.042Z,48.3
2017-08-20T13:30:06.280Z,47.4
2017-08-20T13:31:05.978Z,46.9
2017-08-20T13:32:05.173Z,47.5
2017-08-20T13:33:04.266Z,47.4
2017-08-20T13:34:03.846Z,47
2017-08-20T13:35:03.048Z,47.6
2017-08-20T13:36:02.380Z,47.7
2017-08-20T13:37:01.974Z,47.4
2017-08-20T13:38:01.182Z,47.2
2017-08-20T13:40:00.147Z,47.2
2017-08-20T13:40:59.218Z,46.7
2017-08-20T13:41:58.409Z,46.6
2017-08-20T13:42:58.108Z,46.6
2017-08-20T13:43:57.097Z,46.5
2017-08-20T13:44:56.799Z,46.6
2017-08-20T13:45:55.976Z,46.9
2017-08-20T13:46:55.320Z,46.4
2017-08-20T13:47:54.517Z,47.1
2017-08-20T13:48:54.223Z,46.9
2017-08-20T13:49:53.287Z,46.5
2017-08-20T13:50:52.500Z,46.4
2017-08-20T13:51:52.185Z,46.9
2017-08-20T13:52:51.375Z,47.2
2017-08-20T13:53:50.572Z,47.1
2017-08-20T13:54:50.293Z,48
2017-08-20T13:56:48.759Z,47.7
2017-08-20T13:57:47.959Z,47.7
2017-08-20T13:58:47.526Z,47.4
2017-08-20T13:59:46.722Z,48.1
2017-08-20T14:00:45.917Z,48.1
2017-08-20T14:01:45.501Z,47.6
2017-08-20T14:02:44.696Z,47
2017-08-20T14:03:43.771Z,46.4
2017-08-20T14:04:43.243Z,46.4
2017-08-20T14:05:42.941Z,46.8
2017-08-20T14:06:42.014Z,45.9
2017-08-20T14:07:41.719Z,45.7
2017-08-20T14:08:40.932Z,45.6
2017-08-20T14:09:40.013Z,46
2017-08-20T14:10:10.399Z,46
2017-08-20T14:11:38.671Z,45.7
2017-08-20T14:12:38.258Z,45.7
2017-08-20T14:13:37.220Z,46.3
2017-08-20T14:15:36.057Z,46.3
2017-08-20T14:16:35.635Z,45.6
2017-08-20T14:17:34.589Z,45.5
2017-08-20T14:18:34.285Z,45.6
2017-08-20T14:19:33.265Z,45.4
2017-08-20T14:20:32.958Z,44.4
2017-08-20T14:21:32.403Z,43.3
2017-08-20T14:22:31.594Z,43.9
2017-08-20T14:23:30.670Z,43.9